sensor_id;sensor_type;location;lat;lon;timestamp;temperature;humidity
29939;DHT22;16799;50.844;5.304;2024-03-06T00:00:06;7.20;99.90
29939;DHT22;16799;50.844;5.304;2024-03-06T00:02:34;7.20;99.90
29939;DHT22;16799;50.844;5.304;2024-03-06T00:05:00;7.00;99.90
29939;DHT22;16799;50.844;5.304;2024-03-06T00:07:26;6.80;99.90
29939;DHT22;16799;50.844;5.304;2024-03-06T00:09:51;6.80;99.90
29939;DHT22;16799;50.844;5.304;2024-03-06T00:12:18;6.70;99.90
29939;DHT22;16799;50.844;5.304;2024-03-06T00:14:44;6.60;99.90
29939;DHT22;16799;50.844;5.304;2024-03-06T00:17:10;6.40;99.90
29939;DHT22;16799;50.844;5.304;2024-03-06T00:19:35;6.30;99.90
29939;DHT22;16799;50.844;5.304;2024-03-06T00:22:02;6.20;99.90
29939;DHT22;16799;50.844;5.304;2024-03-06T00:24:28;6.20;99.90
29939;DHT22;16799;50.844;5.304;2024-03-06T00:26:53;6.40;99.90
29939;DHT22;16799;50.844;5.304;2024-03-06T00:29:19;6.30;99.90
29939;DHT22;16799;50.844;5.304;2024-03-06T00:31:46;6.20;99.90
29939;DHT22;16799;50.844;5.304;2024-03-06T00:34:12;6.30;99.90
29939;DHT22;16799;50.844;5.304;2024-03-06T00:36:39;6.10;99.90
29939;DHT22;16799;50.844;5.304;2024-03-06T00:39:05;5.90;99.90
29939;DHT22;16799;50.844;5.304;2024-03-06T00:41:31;5.80;99.90
29939;DHT22;16799;50.844;5.304;2024-03-06T00:43:57;5.90;99.90
29939;DHT22;16799;50.844;5.304;2024-03-06T00:46:23;6.00;99.90
29939;DHT22;16799;50.844;5.304;2024-03-06T00:48:49;6.00;99.90
29939;DHT22;16799;50.844;5.304;2024-03-06T00:51:14;6.10;99.90
29939;DHT22;16799;50.844;5.304;2024-03-06T00:53:40;6.20;99.90
29939;DHT22;16799;50.844;5.304;2024-03-06T00:56:07;6.20;99.90
29939;DHT22;16799;50.844;5.304;2024-03-06T00:58:32;6.10;99.90
29939;DHT22;16799;50.844;5.304;2024-03-06T01:00:58;6.10;99.90
29939;DHT22;16799;50.844;5.304;2024-03-06T01:03:24;6.00;99.90
29939;DHT22;16799;50.844;5.304;2024-03-06T01:05:50;5.80;99.90
29939;DHT22;16799;50.844;5.304;2024-03-06T01:08:19;5.80;99.90
29939;DHT22;16799;50.844;5.304;2024-03-06T01:10:44;5.70;99.90
29939;DHT22;16799;50.844;5.304;2024-03-06T01:13:10;5.60;99.90
29939;DHT22;16799;50.844;5.304;2024-03-06T01:15:37;5.50;99.90
29939;DHT22;16799;50.844;5.304;2024-03-06T01:18:03;5.40;99.90
29939;DHT22;16799;50.844;5.304;2024-03-06T01:20:29;5.30;99.90
29939;DHT22;16799;50.844;5.304;2024-03-06T01:22:55;5.30;99.90
29939;DHT22;16799;50.844;5.304;2024-03-06T01:25:20;5.50;99.90
29939;DHT22;16799;50.844;5.304;2024-03-06T01:27:48;5.50;99.90
29939;DHT22;16799;50.844;5.304;2024-03-06T01:30:14;5.50;99.90
29939;DHT22;16799;50.844;5.304;2024-03-06T01:32:40;5.50;99.90
29939;DHT22;16799;50.844;5.304;2024-03-06T01:35:06;5.40;99.90
29939;DHT22;16799;50.844;5.304;2024-03-06T01:37:32;5.20;99.90
29939;DHT22;16799;50.844;5.304;2024-03-06T01:39:58;5.10;99.90
29939;DHT22;16799;50.844;5.304;2024-03-06T01:42:23;5.20;99.90
29939;DHT22;16799;50.844;5.304;2024-03-06T01:44:49;5.30;99.90
29939;DHT22;16799;50.844;5.304;2024-03-06T01:47:15;5.30;99.90
29939;DHT22;16799;50.844;5.304;2024-03-06T01:49:41;5.70;99.90
29939;DHT22;16799;50.844;5.304;2024-03-06T01:52:09;5.70;99.90
29939;DHT22;16799;50.844;5.304;2024-03-06T01:54:37;5.70;99.90
29939;DHT22;16799;50.844;5.304;2024-03-06T01:57:03;5.50;99.90
29939;DHT22;16799;50.844;5.304;2024-03-06T01:59:30;5.40;99.90
29939;DHT22;16799;50.844;5.304;2024-03-06T02:01:55;5.20;99.90
29939;DHT22;16799;50.844;5.304;2024-03-06T02:04:22;5.10;99.90
29939;DHT22;16799;50.844;5.304;2024-03-06T02:06:49;5.10;99.90
29939;DHT22;16799;50.844;5.304;2024-03-06T02:09:14;5.20;99.90
29939;DHT22;16799;50.844;5.304;2024-03-06T02:11:40;5.20;99.90
29939;DHT22;16799;50.844;5.304;2024-03-06T02:14:07;5.10;99.90
29939;DHT22;16799;50.844;5.304;2024-03-06T02:16:35;5.10;99.90
29939;DHT22;16799;50.844;5.304;2024-03-06T02:19:01;5.00;99.90
29939;DHT22;16799;50.844;5.304;2024-03-06T02:21:27;5.00;99.90
29939;DHT22;16799;50.844;5.304;2024-03-06T02:23:52;4.80;99.90
29939;DHT22;16799;50.844;5.304;2024-03-06T02:26:19;4.80;99.90
29939;DHT22;16799;50.844;5.304;2024-03-06T02:28:53;4.80;99.90
29939;DHT22;16799;50.844;5.304;2024-03-06T02:31:20;4.90;99.90
29939;DHT22;16799;50.844;5.304;2024-03-06T02:33:46;4.80;99.90
29939;DHT22;16799;50.844;5.304;2024-03-06T02:36:16;4.80;99.90
29939;DHT22;16799;50.844;5.304;2024-03-06T02:38:45;4.90;99.90
29939;DHT22;16799;50.844;5.304;2024-03-06T02:41:11;4.80;99.90
29939;DHT22;16799;50.844;5.304;2024-03-06T02:43:39;4.80;99.90
29939;DHT22;16799;50.844;5.304;2024-03-06T02:46:05;4.90;99.90
29939;DHT22;16799;50.844;5.304;2024-03-06T02:48:30;4.70;99.90
29939;DHT22;16799;50.844;5.304;2024-03-06T02:50:57;4.70;99.90
29939;DHT22;16799;50.844;5.304;2024-03-06T02:53:22;4.60;99.90
29939;DHT22;16799;50.844;5.304;2024-03-06T02:55:48;4.50;99.90
29939;DHT22;16799;50.844;5.304;2024-03-06T02:58:15;4.50;99.90
29939;DHT22;16799;50.844;5.304;2024-03-06T03:00:42;4.60;99.90
29939;DHT22;16799;50.844;5.304;2024-03-06T03:03:08;4.70;99.90
29939;DHT22;16799;50.844;5.304;2024-03-06T03:05:33;4.60;99.90
29939;DHT22;16799;50.844;5.304;2024-03-06T03:07:59;4.70;99.90
29939;DHT22;16799;50.844;5.304;2024-03-06T03:10:25;4.60;99.90
29939;DHT22;16799;50.844;5.304;2024-03-06T03:12:51;4.60;99.90
29939;DHT22;16799;50.844;5.304;2024-03-06T03:15:17;4.50;99.90
29939;DHT22;16799;50.844;5.304;2024-03-06T03:17:43;4.60;99.90
29939;DHT22;16799;50.844;5.304;2024-03-06T03:20:09;4.60;99.90
29939;DHT22;16799;50.844;5.304;2024-03-06T03:22:40;4.40;99.90
29939;DHT22;16799;50.844;5.304;2024-03-06T03:25:13;4.40;99.90
29939;DHT22;16799;50.844;5.304;2024-03-06T03:27:39;4.20;99.90
29939;DHT22;16799;50.844;5.304;2024-03-06T03:30:09;4.10;99.90
29939;DHT22;16799;50.844;5.304;2024-03-06T03:32:36;4.10;99.90
29939;DHT22;16799;50.844;5.304;2024-03-06T03:35:04;4.10;99.90
29939;DHT22;16799;50.844;5.304;2024-03-06T03:37:30;4.10;99.90
29939;DHT22;16799;50.844;5.304;2024-03-06T03:39:56;4.10;99.90
29939;DHT22;16799;50.844;5.304;2024-03-06T03:42:22;4.10;99.90
29939;DHT22;16799;50.844;5.304;2024-03-06T03:44:47;4.00;99.90
29939;DHT22;16799;50.844;5.304;2024-03-06T03:47:13;3.90;99.90
29939;DHT22;16799;50.844;5.304;2024-03-06T03:49:39;3.90;99.90
29939;DHT22;16799;50.844;5.304;2024-03-06T03:52:04;3.90;99.90
29939;DHT22;16799;50.844;5.304;2024-03-06T03:54:30;3.90;99.90
29939;DHT22;16799;50.844;5.304;2024-03-06T03:56:55;3.80;99.90
29939;DHT22;16799;50.844;5.304;2024-03-06T03:59:21;3.90;99.90
29939;DHT22;16799;50.844;5.304;2024-03-06T04:01:47;3.80;99.90
29939;DHT22;16799;50.844;5.304;2024-03-06T04:04:13;3.80;99.90
29939;DHT22;16799;50.844;5.304;2024-03-06T04:06:39;3.80;99.90
29939;DHT22;16799;50.844;5.304;2024-03-06T04:09:04;3.80;99.90
29939;DHT22;16799;50.844;5.304;2024-03-06T04:11:30;3.80;99.90
29939;DHT22;16799;50.844;5.304;2024-03-06T04:13:59;3.60;99.90
29939;DHT22;16799;50.844;5.304;2024-03-06T04:16:24;3.60;99.90
29939;DHT22;16799;50.844;5.304;2024-03-06T04:18:51;3.40;99.90
29939;DHT22;16799;50.844;5.304;2024-03-06T04:21:17;3.50;99.90
29939;DHT22;16799;50.844;5.304;2024-03-06T04:23:43;3.60;99.90
29939;DHT22;16799;50.844;5.304;2024-03-06T04:26:09;3.60;99.90
29939;DHT22;16799;50.844;5.304;2024-03-06T04:28:35;3.60;99.90
29939;DHT22;16799;50.844;5.304;2024-03-06T04:31:00;3.60;99.90
29939;DHT22;16799;50.844;5.304;2024-03-06T04:33:26;3.50;99.90
29939;DHT22;16799;50.844;5.304;2024-03-06T04:35:51;3.40;99.90
29939;DHT22;16799;50.844;5.304;2024-03-06T04:38:17;3.40;99.90
29939;DHT22;16799;50.844;5.304;2024-03-06T04:40:43;3.40;99.90
29939;DHT22;16799;50.844;5.304;2024-03-06T04:43:10;3.40;99.90
29939;DHT22;16799;50.844;5.304;2024-03-06T04:45:36;3.30;99.90
29939;DHT22;16799;50.844;5.304;2024-03-06T04:48:01;3.20;99.90
29939;DHT22;16799;50.844;5.304;2024-03-06T04:50:27;3.10;99.90
29939;DHT22;16799;50.844;5.304;2024-03-06T04:52:53;3.00;99.90
29939;DHT22;16799;50.844;5.304;2024-03-06T04:55:18;3.00;99.90
29939;DHT22;16799;50.844;5.304;2024-03-06T04:57:48;3.10;99.90
29939;DHT22;16799;50.844;5.304;2024-03-06T05:00:14;3.10;99.90
29939;DHT22;16799;50.844;5.304;2024-03-06T05:02:40;3.10;99.90
29939;DHT22;16799;50.844;5.304;2024-03-06T05:05:07;3.10;99.90
29939;DHT22;16799;50.844;5.304;2024-03-06T05:07:33;3.10;99.90
29939;DHT22;16799;50.844;5.304;2024-03-06T05:09:59;3.10;99.90
29939;DHT22;16799;50.844;5.304;2024-03-06T05:12:26;3.00;99.90
29939;DHT22;16799;50.844;5.304;2024-03-06T05:14:52;3.10;99.90
29939;DHT22;16799;50.844;5.304;2024-03-06T05:17:19;3.10;99.90
29939;DHT22;16799;50.844;5.304;2024-03-06T05:19:46;3.20;99.90
29939;DHT22;16799;50.844;5.304;2024-03-06T05:22:15;3.30;99.90
29939;DHT22;16799;50.844;5.304;2024-03-06T05:24:42;3.20;99.90
29939;DHT22;16799;50.844;5.304;2024-03-06T05:27:08;3.10;99.90
29939;DHT22;16799;50.844;5.304;2024-03-06T05:29:35;3.00;99.90
29939;DHT22;16799;50.844;5.304;2024-03-06T05:32:02;2.90;99.90
29939;DHT22;16799;50.844;5.304;2024-03-06T05:34:28;2.90;99.90
29939;DHT22;16799;50.844;5.304;2024-03-06T05:36:55;2.90;99.90
29939;DHT22;16799;50.844;5.304;2024-03-06T05:39:21;3.00;99.90
29939;DHT22;16799;50.844;5.304;2024-03-06T05:41:46;2.90;99.90
29939;DHT22;16799;50.844;5.304;2024-03-06T05:44:12;2.80;99.90
29939;DHT22;16799;50.844;5.304;2024-03-06T05:46:38;2.80;99.90
29939;DHT22;16799;50.844;5.304;2024-03-06T05:49:03;2.80;99.90
29939;DHT22;16799;50.844;5.304;2024-03-06T05:51:30;2.80;99.90
29939;DHT22;16799;50.844;5.304;2024-03-06T05:53:56;2.70;99.90
29939;DHT22;16799;50.844;5.304;2024-03-06T05:56:22;2.90;99.90
29939;DHT22;16799;50.844;5.304;2024-03-06T05:58:47;3.00;99.90
29939;DHT22;16799;50.844;5.304;2024-03-06T06:01:17;3.00;99.90
29939;DHT22;16799;50.844;5.304;2024-03-06T06:03:47;2.90;99.90
29939;DHT22;16799;50.844;5.304;2024-03-06T06:06:17;3.00;99.90
29939;DHT22;16799;50.844;5.304;2024-03-06T06:08:44;3.10;99.90
29939;DHT22;16799;50.844;5.304;2024-03-06T06:11:10;3.10;99.90
29939;DHT22;16799;50.844;5.304;2024-03-06T06:13:36;3.00;99.90
29939;DHT22;16799;50.844;5.304;2024-03-06T06:16:02;2.90;99.90
29939;DHT22;16799;50.844;5.304;2024-03-06T06:18:28;3.00;99.90
29939;DHT22;16799;50.844;5.304;2024-03-06T06:20:54;3.00;99.90
29939;DHT22;16799;50.844;5.304;2024-03-06T06:23:20;2.90;99.90
29939;DHT22;16799;50.844;5.304;2024-03-06T06:25:45;2.90;99.90
29939;DHT22;16799;50.844;5.304;2024-03-06T06:28:11;2.90;99.90
29939;DHT22;16799;50.844;5.304;2024-03-06T06:30:37;2.90;99.90
29939;DHT22;16799;50.844;5.304;2024-03-06T06:33:04;3.00;99.90
29939;DHT22;16799;50.844;5.304;2024-03-06T06:35:30;3.10;99.90
29939;DHT22;16799;50.844;5.304;2024-03-06T06:37:55;3.20;99.90
29939;DHT22;16799;50.844;5.304;2024-03-06T06:40:21;3.20;99.90
29939;DHT22;16799;50.844;5.304;2024-03-06T06:42:48;3.20;99.90
29939;DHT22;16799;50.844;5.304;2024-03-06T06:45:20;3.10;99.90
29939;DHT22;16799;50.844;5.304;2024-03-06T06:47:47;3.20;99.90
29939;DHT22;16799;50.844;5.304;2024-03-06T06:50:13;3.30;99.90
29939;DHT22;16799;50.844;5.304;2024-03-06T06:52:39;3.40;99.90
29939;DHT22;16799;50.844;5.304;2024-03-06T06:55:06;3.40;99.90
29939;DHT22;16799;50.844;5.304;2024-03-06T06:57:32;3.50;99.90
29939;DHT22;16799;50.844;5.304;2024-03-06T07:00:00;3.50;99.90
29939;DHT22;16799;50.844;5.304;2024-03-06T07:02:26;3.60;99.90
29939;DHT22;16799;50.844;5.304;2024-03-06T07:04:52;3.50;99.90
29939;DHT22;16799;50.844;5.304;2024-03-06T07:07:18;3.70;99.90
29939;DHT22;16799;50.844;5.304;2024-03-06T07:09:44;3.90;99.90
29939;DHT22;16799;50.844;5.304;2024-03-06T07:12:10;3.90;99.90
29939;DHT22;16799;50.844;5.304;2024-03-06T07:14:36;4.10;99.90
29939;DHT22;16799;50.844;5.304;2024-03-06T07:17:01;4.10;99.90
29939;DHT22;16799;50.844;5.304;2024-03-06T07:19:27;4.10;99.90
29939;DHT22;16799;50.844;5.304;2024-03-06T07:21:53;4.10;99.90
29939;DHT22;16799;50.844;5.304;2024-03-06T07:24:20;4.10;99.90
29939;DHT22;16799;50.844;5.304;2024-03-06T07:26:45;4.00;99.90
29939;DHT22;16799;50.844;5.304;2024-03-06T07:29:11;4.00;99.90
29939;DHT22;16799;50.844;5.304;2024-03-06T07:31:42;4.20;99.90
29939;DHT22;16799;50.844;5.304;2024-03-06T07:34:09;4.30;99.90
29939;DHT22;16799;50.844;5.304;2024-03-06T07:36:35;4.40;99.90
29939;DHT22;16799;50.844;5.304;2024-03-06T07:39:01;4.50;99.90
29939;DHT22;16799;50.844;5.304;2024-03-06T07:41:28;4.80;99.90
29939;DHT22;16799;50.844;5.304;2024-03-06T07:43:53;5.20;99.90
29939;DHT22;16799;50.844;5.304;2024-03-06T07:46:19;5.30;99.90
29939;DHT22;16799;50.844;5.304;2024-03-06T07:48:45;5.30;99.90
29939;DHT22;16799;50.844;5.304;2024-03-06T07:51:10;5.30;99.90
29939;DHT22;16799;50.844;5.304;2024-03-06T07:53:36;5.50;99.90
29939;DHT22;16799;50.844;5.304;2024-03-06T07:56:03;5.80;99.90
29939;DHT22;16799;50.844;5.304;2024-03-06T07:58:30;6.10;99.90
29939;DHT22;16799;50.844;5.304;2024-03-06T08:00:57;6.40;99.90
29939;DHT22;16799;50.844;5.304;2024-03-06T08:03:24;6.70;99.90
29939;DHT22;16799;50.844;5.304;2024-03-06T08:05:53;7.00;99.90
29939;DHT22;16799;50.844;5.304;2024-03-06T08:08:19;6.90;99.90
29939;DHT22;16799;50.844;5.304;2024-03-06T08:10:44;6.90;99.90
29939;DHT22;16799;50.844;5.304;2024-03-06T08:13:10;7.00;99.90
29939;DHT22;16799;50.844;5.304;2024-03-06T08:15:36;7.30;99.90
29939;DHT22;16799;50.844;5.304;2024-03-06T08:18:02;7.60;99.90
29939;DHT22;16799;50.844;5.304;2024-03-06T08:20:31;7.80;99.90
29939;DHT22;16799;50.844;5.304;2024-03-06T08:22:56;8.00;99.90
29939;DHT22;16799;50.844;5.304;2024-03-06T08:25:22;8.20;99.90
29939;DHT22;16799;50.844;5.304;2024-03-06T08:27:48;7.90;99.90
29939;DHT22;16799;50.844;5.304;2024-03-06T08:30:14;7.80;99.90
29939;DHT22;16799;50.844;5.304;2024-03-06T08:32:40;7.80;99.90
29939;DHT22;16799;50.844;5.304;2024-03-06T08:35:10;8.20;99.90
29939;DHT22;16799;50.844;5.304;2024-03-06T08:37:39;8.00;99.90
29939;DHT22;16799;50.844;5.304;2024-03-06T08:40:08;8.30;99.90
29939;DHT22;16799;50.844;5.304;2024-03-06T08:42:46;8.20;99.90
29939;DHT22;16799;50.844;5.304;2024-03-06T08:45:16;8.40;99.90
29939;DHT22;16799;50.844;5.304;2024-03-06T08:47:43;8.60;99.90
29939;DHT22;16799;50.844;5.304;2024-03-06T08:50:09;8.80;99.90
29939;DHT22;16799;50.844;5.304;2024-03-06T08:52:35;9.10;99.90
29939;DHT22;16799;50.844;5.304;2024-03-06T08:55:02;9.10;99.90
29939;DHT22;16799;50.844;5.304;2024-03-06T08:57:34;9.30;99.90
29939;DHT22;16799;50.844;5.304;2024-03-06T09:00:01;9.60;99.90
29939;DHT22;16799;50.844;5.304;2024-03-06T09:02:27;9.70;99.90
29939;DHT22;16799;50.844;5.304;2024-03-06T09:04:53;10.10;99.90
29939;DHT22;16799;50.844;5.304;2024-03-06T09:07:19;10.30;99.90
29939;DHT22;16799;50.844;5.304;2024-03-06T09:09:45;10.60;99.90
29939;DHT22;16799;50.844;5.304;2024-03-06T09:12:11;10.70;99.90
29939;DHT22;16799;50.844;5.304;2024-03-06T09:14:38;10.80;99.90
29939;DHT22;16799;50.844;5.304;2024-03-06T09:17:05;10.80;99.90
29939;DHT22;16799;50.844;5.304;2024-03-06T09:19:32;10.60;99.90
29939;DHT22;16799;50.844;5.304;2024-03-06T09:21:58;10.60;99.90
29939;DHT22;16799;50.844;5.304;2024-03-06T09:24:24;11.30;99.90
29939;DHT22;16799;50.844;5.304;2024-03-06T09:26:53;11.30;99.90
29939;DHT22;16799;50.844;5.304;2024-03-06T09:29:19;11.30;99.90
29939;DHT22;16799;50.844;5.304;2024-03-06T09:31:45;11.50;99.90
29939;DHT22;16799;50.844;5.304;2024-03-06T09:34:11;11.70;99.90
29939;DHT22;16799;50.844;5.304;2024-03-06T09:36:41;11.70;99.90
29939;DHT22;16799;50.844;5.304;2024-03-06T09:39:11;12.00;99.90
29939;DHT22;16799;50.844;5.304;2024-03-06T09:41:36;12.40;99.90
29939;DHT22;16799;50.844;5.304;2024-03-06T09:44:04;12.50;99.90
29939;DHT22;16799;50.844;5.304;2024-03-06T09:46:30;12.60;99.90
29939;DHT22;16799;50.844;5.304;2024-03-06T09:48:56;12.20;99.90
29939;DHT22;16799;50.844;5.304;2024-03-06T09:51:22;12.10;99.90
29939;DHT22;16799;50.844;5.304;2024-03-06T09:53:48;12.20;99.90
29939;DHT22;16799;50.844;5.304;2024-03-06T09:56:17;12.60;99.90
29939;DHT22;16799;50.844;5.304;2024-03-06T09:58:45;12.10;99.90
29939;DHT22;16799;50.844;5.304;2024-03-06T10:01:12;11.70;99.90
29939;DHT22;16799;50.844;5.304;2024-03-06T10:03:39;12.30;99.90
29939;DHT22;16799;50.844;5.304;2024-03-06T10:06:06;12.80;99.90
29939;DHT22;16799;50.844;5.304;2024-03-06T10:08:33;12.90;99.90
29939;DHT22;16799;50.844;5.304;2024-03-06T10:10:59;12.60;99.90
29939;DHT22;16799;50.844;5.304;2024-03-06T10:13:25;12.40;99.90
29939;DHT22;16799;50.844;5.304;2024-03-06T10:15:59;12.70;99.90
29939;DHT22;16799;50.844;5.304;2024-03-06T10:18:29;13.20;99.90
29939;DHT22;16799;50.844;5.304;2024-03-06T10:20:56;13.70;99.90
29939;DHT22;16799;50.844;5.304;2024-03-06T10:23:22;14.10;99.90
29939;DHT22;16799;50.844;5.304;2024-03-06T10:25:48;14.70;99.90
29939;DHT22;16799;50.844;5.304;2024-03-06T10:28:21;15.20;99.90
29939;DHT22;16799;50.844;5.304;2024-03-06T10:30:51;15.40;91.40
29939;DHT22;16799;50.844;5.304;2024-03-06T10:33:18;15.30;99.90
29939;DHT22;16799;50.844;5.304;2024-03-06T10:35:46;15.80;88.80
29939;DHT22;16799;50.844;5.304;2024-03-06T10:38:13;16.00;90.10
29939;DHT22;16799;50.844;5.304;2024-03-06T10:40:43;17.20;83.10
29939;DHT22;16799;50.844;5.304;2024-03-06T10:43:09;18.30;67.90
29939;DHT22;16799;50.844;5.304;2024-03-06T10:45:48;19.20;61.90
29939;DHT22;16799;50.844;5.304;2024-03-06T10:48:15;18.10;60.50
29939;DHT22;16799;50.844;5.304;2024-03-06T10:50:42;16.20;73.30
29939;DHT22;16799;50.844;5.304;2024-03-06T10:53:15;16.10;78.20
29939;DHT22;16799;50.844;5.304;2024-03-06T10:55:43;16.00;79.20
29939;DHT22;16799;50.844;5.304;2024-03-06T10:58:10;15.40;86.40
29939;DHT22;16799;50.844;5.304;2024-03-06T11:00:38;14.90;88.10
29939;DHT22;16799;50.844;5.304;2024-03-06T11:03:09;14.60;91.10
29939;DHT22;16799;50.844;5.304;2024-03-06T11:05:38;14.20;93.60
29939;DHT22;16799;50.844;5.304;2024-03-06T11:08:08;13.90;95.60
29939;DHT22;16799;50.844;5.304;2024-03-06T11:10:35;14.30;93.60
29939;DHT22;16799;50.844;5.304;2024-03-06T11:13:02;14.20;93.30
29939;DHT22;16799;50.844;5.304;2024-03-06T11:15:31;13.40;99.90
29939;DHT22;16799;50.844;5.304;2024-03-06T11:17:57;13.20;99.90
29939;DHT22;16799;50.844;5.304;2024-03-06T11:20:23;13.10;99.90
29939;DHT22;16799;50.844;5.304;2024-03-06T11:28:35;14.00;98.10
29939;DHT22;16799;50.844;5.304;2024-03-06T11:33:53;14.90;90.50
29939;DHT22;16799;50.844;5.304;2024-03-06T11:36:26;14.90;90.20
29939;DHT22;16799;50.844;5.304;2024-03-06T11:39:01;13.50;95.10
29939;DHT22;16799;50.844;5.304;2024-03-06T11:41:47;13.80;96.40
29939;DHT22;16799;50.844;5.304;2024-03-06T11:44:18;16.10;81.40
29939;DHT22;16799;50.844;5.304;2024-03-06T11:47:06;16.80;70.50
29939;DHT22;16799;50.844;5.304;2024-03-06T11:49:34;16.40;77.90
29939;DHT22;16799;50.844;5.304;2024-03-06T11:52:04;16.00;84.70
29939;DHT22;16799;50.844;5.304;2024-03-06T11:54:31;15.40;83.30
29939;DHT22;16799;50.844;5.304;2024-03-06T11:57:02;15.50;83.50
29939;DHT22;16799;50.844;5.304;2024-03-06T11:59:30;15.20;81.60
29939;DHT22;16799;50.844;5.304;2024-03-06T12:01:59;15.20;86.50
29939;DHT22;16799;50.844;5.304;2024-03-06T12:04:27;14.80;88.20
29939;DHT22;16799;50.844;5.304;2024-03-06T12:06:59;14.20;84.80
29939;DHT22;16799;50.844;5.304;2024-03-06T12:09:26;14.00;90.80
29939;DHT22;16799;50.844;5.304;2024-03-06T12:11:52;13.90;90.70
29939;DHT22;16799;50.844;5.304;2024-03-06T12:14:20;14.30;85.10
29939;DHT22;16799;50.844;5.304;2024-03-06T12:16:59;14.50;79.00
29939;DHT22;16799;50.844;5.304;2024-03-06T12:19:27;14.60;80.90
29939;DHT22;16799;50.844;5.304;2024-03-06T12:21:53;14.90;76.80
29939;DHT22;16799;50.844;5.304;2024-03-06T12:24:19;15.20;71.30
29939;DHT22;16799;50.844;5.304;2024-03-06T12:26:46;15.90;70.70
29939;DHT22;16799;50.844;5.304;2024-03-06T12:29:19;15.50;65.00
29939;DHT22;16799;50.844;5.304;2024-03-06T12:31:45;15.20;65.30
29939;DHT22;16799;50.844;5.304;2024-03-06T12:34:14;15.60;63.60
29939;DHT22;16799;50.844;5.304;2024-03-06T12:36:42;16.30;66.20
29939;DHT22;16799;50.844;5.304;2024-03-06T12:39:08;17.00;63.20
29939;DHT22;16799;50.844;5.304;2024-03-06T12:41:39;17.70;56.70
29939;DHT22;16799;50.844;5.304;2024-03-06T12:44:05;17.90;54.80
29939;DHT22;16799;50.844;5.304;2024-03-06T12:46:32;18.20;56.70
29939;DHT22;16799;50.844;5.304;2024-03-06T12:48:57;18.50;59.90
29939;DHT22;16799;50.844;5.304;2024-03-06T12:51:23;21.10;54.20
29939;DHT22;16799;50.844;5.304;2024-03-06T12:53:49;24.40;46.50
29939;DHT22;16799;50.844;5.304;2024-03-06T12:56:15;25.80;40.30
29939;DHT22;16799;50.844;5.304;2024-03-06T12:58:41;24.50;37.50
29939;DHT22;16799;50.844;5.304;2024-03-06T13:01:06;25.80;34.70
29939;DHT22;16799;50.844;5.304;2024-03-06T13:03:32;27.40;33.40
29939;DHT22;16799;50.844;5.304;2024-03-06T13:05:58;26.00;34.00
29939;DHT22;16799;50.844;5.304;2024-03-06T13:08:24;25.20;33.60
29939;DHT22;16799;50.844;5.304;2024-03-06T13:10:50;24.60;33.30
29939;DHT22;16799;50.844;5.304;2024-03-06T13:13:16;23.00;33.80
29939;DHT22;16799;50.844;5.304;2024-03-06T13:15:41;23.60;32.30
29939;DHT22;16799;50.844;5.304;2024-03-06T13:18:08;23.20;31.20
29939;DHT22;16799;50.844;5.304;2024-03-06T13:20:34;25.00;32.00
29939;DHT22;16799;50.844;5.304;2024-03-06T13:23:01;25.10;29.40
29939;DHT22;16799;50.844;5.304;2024-03-06T13:25:27;25.40;33.20
29939;DHT22;16799;50.844;5.304;2024-03-06T13:27:52;25.90;29.50
29939;DHT22;16799;50.844;5.304;2024-03-06T13:30:19;24.50;33.10
29939;DHT22;16799;50.844;5.304;2024-03-06T13:32:45;25.00;30.90
29939;DHT22;16799;50.844;5.304;2024-03-06T13:35:12;26.10;28.10
29939;DHT22;16799;50.844;5.304;2024-03-06T13:37:45;25.80;29.40
29939;DHT22;16799;50.844;5.304;2024-03-06T13:40:11;26.20;27.90
29939;DHT22;16799;50.844;5.304;2024-03-06T13:42:39;24.40;29.00
29939;DHT22;16799;50.844;5.304;2024-03-06T13:45:05;23.90;31.30
29939;DHT22;16799;50.844;5.304;2024-03-06T13:47:37;22.20;34.20
29939;DHT22;16799;50.844;5.304;2024-03-06T13:50:05;22.30;35.20
29939;DHT22;16799;50.844;5.304;2024-03-06T13:52:33;23.80;33.50
29939;DHT22;16799;50.844;5.304;2024-03-06T13:54:59;25.90;30.20
29939;DHT22;16799;50.844;5.304;2024-03-06T13:57:28;28.00;27.60
29939;DHT22;16799;50.844;5.304;2024-03-06T13:59:54;27.60;26.90
29939;DHT22;16799;50.844;5.304;2024-03-06T14:02:20;26.60;25.40
29939;DHT22;16799;50.844;5.304;2024-03-06T14:04:46;25.90;27.10
29939;DHT22;16799;50.844;5.304;2024-03-06T14:07:12;27.40;27.30
29939;DHT22;16799;50.844;5.304;2024-03-06T14:09:38;24.70;25.80
29939;DHT22;16799;50.844;5.304;2024-03-06T14:12:04;25.10;28.40
29939;DHT22;16799;50.844;5.304;2024-03-06T14:14:29;24.50;26.60
29939;DHT22;16799;50.844;5.304;2024-03-06T14:16:55;22.90;27.30
29939;DHT22;16799;50.844;5.304;2024-03-06T14:19:21;20.50;29.60
29939;DHT22;16799;50.844;5.304;2024-03-06T14:21:47;19.50;31.10
29939;DHT22;16799;50.844;5.304;2024-03-06T14:24:13;17.70;33.60
29939;DHT22;16799;50.844;5.304;2024-03-06T14:26:38;17.80;39.20
29939;DHT22;16799;50.844;5.304;2024-03-06T14:29:06;17.90;40.70
29939;DHT22;16799;50.844;5.304;2024-03-06T14:31:33;17.00;36.50
29939;DHT22;16799;50.844;5.304;2024-03-06T14:33:59;16.90;37.30
29939;DHT22;16799;50.844;5.304;2024-03-06T14:36:25;15.60;39.70
29939;DHT22;16799;50.844;5.304;2024-03-06T14:38:51;14.80;43.30
29939;DHT22;16799;50.844;5.304;2024-03-06T14:41:21;14.40;47.60
29939;DHT22;16799;50.844;5.304;2024-03-06T14:43:46;14.30;49.60
29939;DHT22;16799;50.844;5.304;2024-03-06T14:46:12;14.30;53.60
29939;DHT22;16799;50.844;5.304;2024-03-06T14:48:38;14.60;52.20
29939;DHT22;16799;50.844;5.304;2024-03-06T14:51:06;14.60;52.30
29939;DHT22;16799;50.844;5.304;2024-03-06T14:53:32;14.60;54.70
29939;DHT22;16799;50.844;5.304;2024-03-06T14:55:57;14.60;50.10
29939;DHT22;16799;50.844;5.304;2024-03-06T14:58:23;14.70;50.00
29939;DHT22;16799;50.844;5.304;2024-03-06T15:00:49;14.70;49.20
29939;DHT22;16799;50.844;5.304;2024-03-06T15:03:16;14.60;48.30
29939;DHT22;16799;50.844;5.304;2024-03-06T15:05:43;14.50;51.10
29939;DHT22;16799;50.844;5.304;2024-03-06T15:08:12;14.60;50.40
29939;DHT22;16799;50.844;5.304;2024-03-06T15:10:38;14.60;52.70
29939;DHT22;16799;50.844;5.304;2024-03-06T15:13:04;14.40;50.00
29939;DHT22;16799;50.844;5.304;2024-03-06T15:15:30;14.20;51.40
29939;DHT22;16799;50.844;5.304;2024-03-06T15:17:57;14.00;51.00
29939;DHT22;16799;50.844;5.304;2024-03-06T15:20:23;13.90;52.30
29939;DHT22;16799;50.844;5.304;2024-03-06T15:22:48;13.80;57.90
29939;DHT22;16799;50.844;5.304;2024-03-06T15:25:14;13.90;56.60
29939;DHT22;16799;50.844;5.304;2024-03-06T15:27:41;14.00;62.50
29939;DHT22;16799;50.844;5.304;2024-03-06T15:30:08;14.20;58.60
29939;DHT22;16799;50.844;5.304;2024-03-06T15:32:34;14.60;62.80
29939;DHT22;16799;50.844;5.304;2024-03-06T15:35:01;14.90;61.70
29939;DHT22;16799;50.844;5.304;2024-03-06T15:37:26;14.70;56.40
29939;DHT22;16799;50.844;5.304;2024-03-06T15:39:53;14.70;62.80
29939;DHT22;16799;50.844;5.304;2024-03-06T15:42:22;14.40;60.10
29939;DHT22;16799;50.844;5.304;2024-03-06T15:44:51;14.40;56.70